Nearby METAR Reports

 

KOJC - Olathe/Executive, Kansas, USA
Distance from station: N 14mi, 23km
Updated: Mon, 04-Mar-2024 9:36am CST
Overcast
Overcast
 Wind from SSW
Wind: SSW 18 mph , 30 km/h, Gust: 28 mph , 44 km/h
Temperature: 66°F , 19°C
Dew Point: 57°F , 14°C
Humidity: 73%
Barometer: 29.72 inHg , 1006.4 hPa
Clouds: Overcast
Visibility: 10 miles , 16 km
Cloud details: Few Clouds 2300 ft
Overcast 3200 ft
2024/03/04 15:36 KOJC 041536Z 20016G24KT 10SM FEW023 OVC032 19/14 A2972 RMK AO2 PK WND 18031/1500 T01890144
KIXD - Olathe/Industria, Kansas, USA
Distance from station: NW 15mi, 25km
Updated: Mon, 04-Mar-2024 9:19am CST
Mostly cloudy
Mostly cloudy
 Wind from S
Wind: S 16 mph , 26 km/h, Gust: 26 mph , 43 km/h
Temperature: 66°F , 19°C
Dew Point: 57°F , 14°C
Humidity: 73%
Barometer: 29.72 inHg , 1006.4 hPa
Clouds: Mostly cloudy
Visibility: 10 miles , 16 km
Cloud details: Few Clouds 2300 ft
Mostly cloudy 3100 ft
2024/03/04 15:19 KIXD 041519Z 19014G23KT 10SM FEW023 BKN031 19/14 A2972 RMK AO2 PK WND 19026/1454 T01940139 $
 
KLXT - Lees Summit Muni, Missouri, USA
Distance from station: NE 28mi, 46km
Updated: Mon, 04-Mar-2024 8:53am CST
Mostly cloudy
Mostly cloudy
 Wind from S
Wind: S 18 mph , 30 km/h, Gust: 29 mph , 46 km/h
Temperature: 64°F , 18°C
Dew Point: 57°F , 14°C
Humidity: 78%
Barometer: 29.72 inHg , 1006.4 hPa
Clouds: Mostly cloudy
Visibility: 10 miles , 16 km
Cloud details: Few Clouds 1700 ft
Mostly cloudy 2500 ft
2024/03/04 14:53 KLXT 041453Z AUTO 18016G25KT 10SM FEW017 BKN025 18/14 A2972 RMK AO2 PK WND 17027/1404 SLP059 T01780144 53006
KMKC - Kansas City/Dntn, Missouri, USA
Distance from station: N 33mi, 53km
Updated: Mon, 04-Mar-2024 9:32am CST
Mostly cloudy
Mostly cloudy
 Wind from S
Wind: S 8 mph , 13 km/h
Temperature: 66°F , 19°C
Dew Point: 57°F , 14°C
Humidity: 73%
Barometer: 29.72 inHg , 1006.4 hPa
Clouds: Mostly cloudy
Visibility: 10 miles , 16 km
Cloud details: Few Clouds 2600 ft
Mostly cloudy 3500 ft
2024/03/04 15:32 KMKC 041532Z 18007KT 10SM FEW026 BKN035 19/14 A2972 RMK AO2 T01890144
 
KLWC - Lawrence, Kansas, USA
Distance from station: NW 38mi, 61km
Updated: Mon, 04-Mar-2024 8:52am CST
Overcast
Overcast
 Wind from SSW
Wind: SSW 14 mph , 22 km/h
Temperature: 66°F , 19°C
Dew Point: 57°F , 14°C
Humidity: 73%
Barometer: 29.71 inHg , 1006.1 hPa
Clouds: Overcast
Visibility: 8 miles , 13 km
Cloud details: Overcast 2100 ft
2024/03/04 14:52 KLWC 041452Z AUTO 20012KT 8SM OVC021 19/14 A2971 RMK AO1 PK WND 19028/1357 SLP060 T01890144 53019
KFOE - Topeka/Forbes, Kansas, USA
Distance from station: WNW 43mi, 70km
Updated: Mon, 04-Mar-2024 8:53am CST
Overcast
Overcast
 Wind from S
Wind: S 22 mph , 35 km/h, Gust: 28 mph , 44 km/h
Temperature: 66°F , 19°C
Dew Point: 57°F , 14°C
Humidity: 73%
Barometer: 29.68 inHg , 1005.1 hPa
Clouds: Overcast
Visibility: 10 miles , 16 km
Cloud details: Overcast 2300 ft
2024/03/04 14:53 KFOE 041453Z 19019G24KT 10SM OVC023 19/14 A2968 RMK AO2 PK WND 19026/1438 SLP047 6//// T01890144 53016 PNO $
 
KMCI - Kansas City/Intl, Missouri, USA
Distance from station: N 45mi, 73km
Updated: Mon, 04-Mar-2024 8:53am CST
Mostly cloudy
Mostly cloudy
 Wind from SSW
Wind: SSW 14 mph , 22 km/h, Gust: 22 mph , 35 km/h
Temperature: 64°F , 18°C
Dew Point: 57°F , 14°C
Humidity: 78%
Barometer: 29.72 inHg , 1006.4 hPa
Clouds: Mostly cloudy
Visibility: 9 miles , 14 km
Cloud details: Mostly cloudy 2200 ft
Mostly cloudy 25000 ft
2024/03/04 14:53 KMCI 041453Z 20012G19KT 9SM BKN022 BKN250 18/14 A2972 RMK AO2 SLP059 T01830144 53018
KRCM - Warrensburg Skyh, Missouri, USA
Distance from station: ENE 49mi, 80km
Updated: Mon, 04-Mar-2024 9:35am CST
Overcast
Overcast
 Wind from S
Wind: S 16 mph , 26 km/h, Gust: 25 mph , 41 km/h
Temperature: 66°F , 19°C
Dew Point: 57°F , 14°C
Humidity: 73%
Barometer: 29.75 inHg , 1007.5 hPa
Clouds: Overcast
Visibility: 10 miles , 16 km
Cloud details: Overcast 2300 ft
2024/03/04 15:35 KRCM 041535Z AUTO 17014G22KT 10SM OVC023 19/14 A2975 RMK AO2